sensor_id;sensor_type;location;lat;lon;timestamp;pressure;altitude;pressure_sealevel;temperature;humidity
75972;BME280;64651;47.540;19.088;2022-11-12T00:02:07;102058.78;;;7.91;90.84
75972;BME280;64651;47.540;19.088;2022-11-12T00:07:09;102049.56;;;7.86;90.87
75972;BME280;64651;47.540;19.088;2022-11-12T00:12:11;102036.06;;;7.84;90.94
75972;BME280;64651;47.540;19.088;2022-11-12T00:17:13;102038.34;;;7.87;91.01
75972;BME280;64651;47.540;19.088;2022-11-12T00:22:15;102032.69;;;8.13;90.17
75972;BME280;64651;47.540;19.088;2022-11-12T00:27:18;102025.47;;;8.19;89.67
75972;BME280;64651;47.540;19.088;2022-11-12T00:32:20;102021.22;;;8.23;89.60
75972;BME280;64651;47.540;19.088;2022-11-12T00:37:22;102028.81;;;8.21;89.78
75972;BME280;64651;47.540;19.088;2022-11-12T00:42:25;102022.19;;;8.10;90.08
75972;BME280;64651;47.540;19.088;2022-11-12T00:47:27;102013.13;;;8.10;90.22
75972;BME280;64651;47.540;19.088;2022-11-12T00:52:29;102007.38;;;8.11;90.32
75972;BME280;64651;47.540;19.088;2022-11-12T00:57:31;102007.62;;;8.10;90.33
75972;BME280;64651;47.540;19.088;2022-11-12T01:02:33;102000.47;;;8.09;90.54
75972;BME280;64651;47.540;19.088;2022-11-12T01:07:43;102004.00;;;8.16;90.62
75972;BME280;64651;47.540;19.088;2022-11-12T01:12:45;102005.59;;;8.24;90.77
75972;BME280;64651;47.540;19.088;2022-11-12T01:17:47;102000.63;;;8.14;90.78
75972;BME280;64651;47.540;19.088;2022-11-12T01:22:49;101997.25;;;8.12;90.68
75972;BME280;64651;47.540;19.088;2022-11-12T01:27:51;102001.38;;;8.03;90.69
75972;BME280;64651;47.540;19.088;2022-11-12T01:32:55;101991.91;;;7.99;90.67
75972;BME280;64651;47.540;19.088;2022-11-12T01:37:57;101991.97;;;7.92;90.64
75972;BME280;64651;47.540;19.088;2022-11-12T01:42:59;101984.00;;;7.84;90.90
75972;BME280;64651;47.540;19.088;2022-11-12T01:48:01;101978.16;;;7.81;90.89
75972;BME280;64651;47.540;19.088;2022-11-12T01:53:07;101978.59;;;7.78;90.80
75972;BME280;64651;47.540;19.088;2022-11-12T01:58:13;101981.31;;;7.78;90.88
75972;BME280;64651;47.540;19.088;2022-11-12T02:03:19;101980.34;;;7.65;91.09
75972;BME280;64651;47.540;19.088;2022-11-12T02:08:22;101981.31;;;7.46;91.34
75972;BME280;64651;47.540;19.088;2022-11-12T02:13:24;101975.13;;;7.26;91.81
75972;BME280;64651;47.540;19.088;2022-11-12T02:18:45;101964.25;;;7.13;92.29
75972;BME280;64651;47.540;19.088;2022-11-12T02:24:42;101962.88;;;6.90;93.09
75972;BME280;64651;47.540;19.088;2022-11-12T02:29:18;101963.97;;;6.83;93.43
75972;BME280;64651;47.540;19.088;2022-11-12T02:34:20;101961.50;;;6.62;94.21
75972;BME280;64651;47.540;19.088;2022-11-12T02:39:22;101967.22;;;6.53;94.70
75972;BME280;64651;47.540;19.088;2022-11-12T02:44:24;101973.78;;;6.46;94.87
75972;BME280;64651;47.540;19.088;2022-11-12T02:49:26;101975.03;;;6.43;95.15
75972;BME280;64651;47.540;19.088;2022-11-12T02:54:28;101987.38;;;6.66;95.10
75972;BME280;64651;47.540;19.088;2022-11-12T02:59:30;101986.91;;;6.88;94.56
75972;BME280;64651;47.540;19.088;2022-11-12T03:04:32;101973.59;;;6.99;94.20
75972;BME280;64651;47.540;19.088;2022-11-12T03:09:34;101967.25;;;7.05;93.84
75972;BME280;64651;47.540;19.088;2022-11-12T03:14:36;101988.09;;;7.06;93.50
75972;BME280;64651;47.540;19.088;2022-11-12T03:19:38;101985.34;;;7.06;93.33
75972;BME280;64651;47.540;19.088;2022-11-12T03:24:40;101985.75;;;7.03;93.24
75972;BME280;64651;47.540;19.088;2022-11-12T03:29:42;101998.41;;;6.97;93.39
75972;BME280;64651;47.540;19.088;2022-11-12T03:34:44;101998.25;;;6.85;93.67
75972;BME280;64651;47.540;19.088;2022-11-12T03:39:46;102004.59;;;6.73;94.11
75972;BME280;64651;47.540;19.088;2022-11-12T03:44:48;102009.50;;;6.64;94.53
75972;BME280;64651;47.540;19.088;2022-11-12T03:49:50;102007.81;;;6.63;94.79
75972;BME280;64651;47.540;19.088;2022-11-12T03:54:53;102006.59;;;6.46;95.19
75972;BME280;64651;47.540;19.088;2022-11-12T03:59:55;101995.66;;;6.33;95.65
75972;BME280;64651;47.540;19.088;2022-11-12T04:04:57;102008.06;;;6.29;95.92
75972;BME280;64651;47.540;19.088;2022-11-12T04:10:17;101987.88;;;6.36;95.96
75972;BME280;64651;47.540;19.088;2022-11-12T04:15:20;101993.31;;;6.49;95.99
75972;BME280;64651;47.540;19.088;2022-11-12T04:20:22;101989.31;;;6.59;95.95
75972;BME280;64651;47.540;19.088;2022-11-12T04:25:42;101994.34;;;6.55;96.10
75972;BME280;64651;47.540;19.088;2022-11-12T04:31:03;102001.12;;;6.33;96.54
75972;BME280;64651;47.540;19.088;2022-11-12T04:36:05;102002.81;;;6.21;96.82
75972;BME280;64651;47.540;19.088;2022-11-12T04:41:07;102006.81;;;6.11;97.14
75972;BME280;64651;47.540;19.088;2022-11-12T04:46:28;101991.25;;;6.05;97.21
75972;BME280;64651;47.540;19.088;2022-11-12T04:51:30;101986.88;;;5.91;97.46
75972;BME280;64651;47.540;19.088;2022-11-12T04:56:50;101986.00;;;5.84;97.60
75972;BME280;64651;47.540;19.088;2022-11-12T05:01:52;101999.63;;;5.71;97.79
75972;BME280;64651;47.540;19.088;2022-11-12T05:06:55;102012.44;;;5.84;97.78
75972;BME280;64651;47.540;19.088;2022-11-12T05:11:57;101998.53;;;5.52;98.11
75972;BME280;64651;47.540;19.088;2022-11-12T05:16:59;102009.66;;;5.51;98.27
75972;BME280;64651;47.540;19.088;2022-11-12T05:22:02;102003.59;;;5.49;98.30
75972;BME280;64651;47.540;19.088;2022-11-12T05:27:15;102009.87;;;5.56;98.37
75972;BME280;64651;47.540;19.088;2022-11-12T05:32:18;102018.72;;;5.58;98.41
75972;BME280;64651;47.540;19.088;2022-11-12T05:37:20;102005.72;;;5.60;98.42
75972;BME280;64651;47.540;19.088;2022-11-12T05:42:22;102005.06;;;5.58;98.54
75972;BME280;64651;47.540;19.088;2022-11-12T05:47:24;102006.97;;;5.70;98.55
75972;BME280;64651;47.540;19.088;2022-11-12T05:52:26;102016.63;;;5.86;98.57
75972;BME280;64651;47.540;19.088;2022-11-12T05:57:29;102021.09;;;5.94;98.52
75972;BME280;64651;47.540;19.088;2022-11-12T06:02:31;102031.59;;;6.10;98.39
75972;BME280;64651;47.540;19.088;2022-11-12T06:07:33;102028.47;;;6.13;98.08
75972;BME280;64651;47.540;19.088;2022-11-12T06:12:35;102041.09;;;6.27;97.79
75972;BME280;64651;47.540;19.088;2022-11-12T06:17:37;102042.31;;;6.44;97.27
75972;BME280;64651;47.540;19.088;2022-11-12T06:22:39;102055.34;;;6.56;96.87
75972;BME280;64651;47.540;19.088;2022-11-12T06:27:42;102061.03;;;6.54;96.56
75972;BME280;64651;47.540;19.088;2022-11-12T06:32:50;102069.47;;;6.53;96.27
75972;BME280;64651;47.540;19.088;2022-11-12T06:37:52;102079.31;;;6.47;95.99
75972;BME280;64651;47.540;19.088;2022-11-12T06:42:56;102085.44;;;6.36;96.03
75972;BME280;64651;47.540;19.088;2022-11-12T06:47:59;102089.00;;;6.43;95.63
75972;BME280;64651;47.540;19.088;2022-11-12T06:53:01;102086.69;;;6.46;95.24
75972;BME280;64651;47.540;19.088;2022-11-12T06:58:03;102087.53;;;6.47;95.22
75972;BME280;64651;47.540;19.088;2022-11-12T07:03:06;102095.72;;;6.40;95.30
75972;BME280;64651;47.540;19.088;2022-11-12T07:08:09;102099.94;;;6.49;95.03
75972;BME280;64651;47.540;19.088;2022-11-12T07:13:11;102099.09;;;6.62;94.53
75972;BME280;64651;47.540;19.088;2022-11-12T07:18:13;102118.22;;;6.88;93.73
75972;BME280;64651;47.540;19.088;2022-11-12T07:23:15;102113.78;;;7.01;92.96
75972;BME280;64651;47.540;19.088;2022-11-12T07:28:17;102110.09;;;7.26;92.03
75972;BME280;64651;47.540;19.088;2022-11-12T07:33:19;102109.62;;;7.49;90.67
75972;BME280;64651;47.540;19.088;2022-11-12T07:38:21;102101.25;;;7.75;89.70
75972;BME280;64651;47.540;19.088;2022-11-12T07:43:23;102095.69;;;8.20;88.10
75972;BME280;64651;47.540;19.088;2022-11-12T07:48:27;102110.25;;;8.95;85.35
75972;BME280;64651;47.540;19.088;2022-11-12T07:53:30;102103.38;;;9.04;84.06
75972;BME280;64651;47.540;19.088;2022-11-12T07:58:33;102092.25;;;8.99;83.75
75972;BME280;64651;47.540;19.088;2022-11-12T08:03:36;102109.72;;;9.41;82.51
75972;BME280;64651;47.540;19.088;2022-11-12T08:08:38;102118.19;;;9.40;82.29
75972;BME280;64651;47.540;19.088;2022-11-12T08:13:40;102127.78;;;9.67;81.60
75972;BME280;64651;47.540;19.088;2022-11-12T08:18:43;102137.06;;;10.14;80.04
75972;BME280;64651;47.540;19.088;2022-11-12T08:23:45;102131.25;;;10.64;77.98
75972;BME280;64651;47.540;19.088;2022-11-12T08:28:47;102130.16;;;10.65;77.33
75972;BME280;64651;47.540;19.088;2022-11-12T08:33:50;102125.50;;;10.88;76.58
75972;BME280;64651;47.540;19.088;2022-11-12T08:38:52;102134.00;;;10.64;77.20
75972;BME280;64651;47.540;19.088;2022-11-12T08:43:55;102127.88;;;10.62;77.55
75972;BME280;64651;47.540;19.088;2022-11-12T08:48:58;102134.47;;;11.19;75.73
75972;BME280;64651;47.540;19.088;2022-11-12T08:54:00;102132.47;;;10.79;76.92
75972;BME280;64651;47.540;19.088;2022-11-12T08:59:02;102130.94;;;10.30;78.96
75972;BME280;64651;47.540;19.088;2022-11-12T09:04:08;102136.81;;;10.34;79.61
75972;BME280;64651;47.540;19.088;2022-11-12T09:09:10;102142.25;;;10.64;78.76
75972;BME280;64651;47.540;19.088;2022-11-12T09:14:12;102145.97;;;10.81;77.90
75972;BME280;64651;47.540;19.088;2022-11-12T09:19:14;102166.09;;;10.81;77.90
75972;BME280;64651;47.540;19.088;2022-11-12T09:24:16;102165.00;;;11.29;76.74
75972;BME280;64651;47.540;19.088;2022-11-12T09:29:19;102175.53;;;12.07;73.76
75972;BME280;64651;47.540;19.088;2022-11-12T09:34:21;102169.66;;;12.32;72.76
75972;BME280;64651;47.540;19.088;2022-11-12T09:39:23;102172.37;;;12.60;71.47
75972;BME280;64651;47.540;19.088;2022-11-12T09:44:25;102181.09;;;13.35;69.20
75972;BME280;64651;47.540;19.088;2022-11-12T09:49:35;102176.06;;;13.54;68.38
75972;BME280;64651;47.540;19.088;2022-11-12T09:54:40;102175.53;;;14.22;66.25
75972;BME280;64651;47.540;19.088;2022-11-12T09:59:43;102176.28;;;14.40;65.75
75972;BME280;64651;47.540;19.088;2022-11-12T10:26:38;102160.13;;;28.57;29.34
75972;BME280;64651;47.540;19.088;2022-11-12T10:31:40;102147.31;;;29.94;27.14
75972;BME280;64651;47.540;19.088;2022-11-12T10:36:53;102139.28;;;31.12;25.69
75972;BME280;64651;47.540;19.088;2022-11-12T10:42:05;102136.72;;;30.10;26.16
75972;BME280;64651;47.540;19.088;2022-11-12T10:52:27;102128.63;;;27.46;29.46
75972;BME280;64651;47.540;19.088;2022-11-12T10:57:29;102133.91;;;25.49;33.35
75972;BME280;64651;47.540;19.088;2022-11-12T11:02:32;102145.03;;;22.58;38.90
75972;BME280;64651;47.540;19.088;2022-11-12T11:07:34;102127.56;;;21.75;40.80
75972;BME280;64651;47.540;19.088;2022-11-12T11:12:36;102126.00;;;24.52;35.51
75972;BME280;64651;47.540;19.088;2022-11-12T11:17:38;102106.94;;;29.54;27.40
75972;BME280;64651;47.540;19.088;2022-11-12T11:22:43;102104.66;;;29.43;27.12
75972;BME280;64651;47.540;19.088;2022-11-12T11:43:59;102099.81;;;26.42;31.70
75972;BME280;64651;47.540;19.088;2022-11-12T11:54:45;102084.78;;;28.69;28.32
75972;BME280;64651;47.540;19.088;2022-11-12T12:10:34;102071.34;;;24.10;35.03
75972;BME280;64651;47.540;19.088;2022-11-12T12:21:28;102067.94;;;20.42;43.60
75972;BME280;64651;47.540;19.088;2022-11-12T12:31:49;102058.13;;;19.22;46.81
75972;BME280;64651;47.540;19.088;2022-11-12T12:36:58;102058.47;;;19.15;47.21
75972;BME280;64651;47.540;19.088;2022-11-12T12:42:14;102050.16;;;18.86;48.13
75972;BME280;64651;47.540;19.088;2022-11-12T12:47:19;102054.53;;;17.96;50.33
75972;BME280;64651;47.540;19.088;2022-11-12T12:52:21;102056.66;;;16.85;53.71
75972;BME280;64651;47.540;19.088;2022-11-12T12:57:37;102056.94;;;16.74;54.79
75972;BME280;64651;47.540;19.088;2022-11-12T13:02:40;102054.72;;;16.76;55.45
75972;BME280;64651;47.540;19.088;2022-11-12T13:07:47;102051.94;;;16.76;55.11
75972;BME280;64651;47.540;19.088;2022-11-12T13:13:01;102043.87;;;16.29;56.56
75972;BME280;64651;47.540;19.088;2022-11-12T13:18:07;102043.06;;;16.18;57.43
75972;BME280;64651;47.540;19.088;2022-11-12T13:23:47;102041.09;;;16.13;57.53
75972;BME280;64651;47.540;19.088;2022-11-12T13:34:31;102038.81;;;15.70;59.16
75972;BME280;64651;47.540;19.088;2022-11-12T13:39:35;102050.63;;;15.45;59.81
75972;BME280;64651;47.540;19.088;2022-11-12T13:44:37;102054.16;;;15.25;60.84
75972;BME280;64651;47.540;19.088;2022-11-12T13:49:40;102039.13;;;15.11;61.20
75972;BME280;64651;47.540;19.088;2022-11-12T13:54:43;102054.31;;;15.03;61.98
75972;BME280;64651;47.540;19.088;2022-11-12T13:59:46;102046.50;;;14.95;61.99
75972;BME280;64651;47.540;19.088;2022-11-12T14:04:49;102048.88;;;14.77;62.72
75972;BME280;64651;47.540;19.088;2022-11-12T14:10:04;102050.13;;;14.54;64.09
75972;BME280;64651;47.540;19.088;2022-11-12T14:20:37;102035.53;;;14.32;64.93
75972;BME280;64651;47.540;19.088;2022-11-12T14:26:09;102048.38;;;14.16;65.69
75972;BME280;64651;47.540;19.088;2022-11-12T14:31:13;102038.09;;;14.11;66.05
75972;BME280;64651;47.540;19.088;2022-11-12T14:36:16;102036.34;;;14.00;66.61
75972;BME280;64651;47.540;19.088;2022-11-12T14:41:20;102044.25;;;13.87;67.36
75972;BME280;64651;47.540;19.088;2022-11-12T14:46:26;102049.34;;;13.73;67.82
75972;BME280;64651;47.540;19.088;2022-11-12T14:51:31;102040.56;;;13.54;68.62
75972;BME280;64651;47.540;19.088;2022-11-12T14:56:41;102036.84;;;13.44;69.29
75972;BME280;64651;47.540;19.088;2022-11-12T15:07:33;102042.16;;;13.07;71.01
75972;BME280;64651;47.540;19.088;2022-11-12T15:12:36;102045.22;;;12.88;71.61
75972;BME280;64651;47.540;19.088;2022-11-12T15:17:38;102052.28;;;12.63;72.38
75972;BME280;64651;47.540;19.088;2022-11-12T15:22:40;102050.31;;;12.25;73.71
75972;BME280;64651;47.540;19.088;2022-11-12T15:27:43;102061.13;;;11.69;75.48
75972;BME280;64651;47.540;19.088;2022-11-12T15:32:46;102051.19;;;11.68;75.19
75972;BME280;64651;47.540;19.088;2022-11-12T15:37:48;102071.78;;;11.77;74.67
75972;BME280;64651;47.540;19.088;2022-11-12T15:42:50;102067.37;;;11.65;75.04
75972;BME280;64651;47.540;19.088;2022-11-12T15:47:52;102072.00;;;11.48;76.17
75972;BME280;64651;47.540;19.088;2022-11-12T15:52:54;102081.63;;;11.33;76.78
75972;BME280;64651;47.540;19.088;2022-11-12T15:57:57;102084.25;;;11.28;77.33
75972;BME280;64651;47.540;19.088;2022-11-12T16:03:19;102097.78;;;11.30;77.63
75972;BME280;64651;47.540;19.088;2022-11-12T16:08:21;102095.75;;;11.37;77.36
75972;BME280;64651;47.540;19.088;2022-11-12T16:13:32;102100.78;;;11.40;77.42
75972;BME280;64651;47.540;19.088;2022-11-12T16:18:35;102097.78;;;11.42;77.83
75972;BME280;64651;47.540;19.088;2022-11-12T16:23:37;102084.94;;;11.47;77.55
75972;BME280;64651;47.540;19.088;2022-11-12T16:28:39;102088.16;;;11.56;77.71
75972;BME280;64651;47.540;19.088;2022-11-12T16:33:41;102086.84;;;11.58;77.90
75972;BME280;64651;47.540;19.088;2022-11-12T16:38:44;102086.59;;;11.48;78.19
75972;BME280;64651;47.540;19.088;2022-11-12T16:43:47;102090.84;;;11.39;78.45
75972;BME280;64651;47.540;19.088;2022-11-12T16:48:49;102091.84;;;11.21;79.01
75972;BME280;64651;47.540;19.088;2022-11-12T16:53:51;102091.37;;;11.13;79.33
75972;BME280;64651;47.540;19.088;2022-11-12T16:58:53;102085.50;;;11.09;79.71
75972;BME280;64651;47.540;19.088;2022-11-12T17:03:56;102081.53;;;11.05;79.86
75972;BME280;64651;47.540;19.088;2022-11-12T17:08:58;102084.09;;;10.72;81.01
75972;BME280;64651;47.540;19.088;2022-11-12T17:14:01;102089.31;;;10.27;82.87
75972;BME280;64651;47.540;19.088;2022-11-12T17:19:03;102082.72;;;9.86;84.64
75972;BME280;64651;47.540;19.088;2022-11-12T17:24:08;102086.75;;;9.54;86.09
75972;BME280;64651;47.540;19.088;2022-11-12T17:29:10;102095.91;;;9.29;87.39
75972;BME280;64651;47.540;19.088;2022-11-12T17:34:13;102088.75;;;9.10;88.41
75972;BME280;64651;47.540;19.088;2022-11-12T17:39:15;102090.63;;;8.91;89.47
75972;BME280;64651;47.540;19.088;2022-11-12T17:44:18;102091.88;;;8.77;90.14
75972;BME280;64651;47.540;19.088;2022-11-12T17:49:20;102091.34;;;8.62;90.93
75972;BME280;64651;47.540;19.088;2022-11-12T17:54:22;102090.19;;;8.51;91.58
75972;BME280;64651;47.540;19.088;2022-11-12T17:59:24;102091.72;;;8.47;92.04
75972;BME280;64651;47.540;19.088;2022-11-12T18:04:26;102092.47;;;8.54;92.14
75972;BME280;64651;47.540;19.088;2022-11-12T18:09:31;102085.50;;;8.59;91.95
75972;BME280;64651;47.540;19.088;2022-11-12T18:14:33;102088.34;;;8.70;91.77
75972;BME280;64651;47.540;19.088;2022-11-12T18:19:35;102097.87;;;8.86;91.40
75972;BME280;64651;47.540;19.088;2022-11-12T18:24:37;102093.19;;;9.11;90.73
75972;BME280;64651;47.540;19.088;2022-11-12T18:29:40;102085.84;;;9.42;89.73
75972;BME280;64651;47.540;19.088;2022-11-12T18:34:42;102096.62;;;9.73;88.21
75972;BME280;64651;47.540;19.088;2022-11-12T18:39:46;102083.56;;;9.87;87.32
75972;BME280;64651;47.540;19.088;2022-11-12T18:44:48;102092.28;;;9.95;86.79
75972;BME280;64651;47.540;19.088;2022-11-12T18:49:50;102103.19;;;10.02;86.29
75972;BME280;64651;47.540;19.088;2022-11-12T18:54:52;102108.47;;;10.03;86.11
75972;BME280;64651;47.540;19.088;2022-11-12T18:59:54;102104.59;;;9.93;86.31
75972;BME280;64651;47.540;19.088;2022-11-12T19:04:56;102097.16;;;9.82;87.02
75972;BME280;64651;47.540;19.088;2022-11-12T19:09:58;102112.06;;;9.74;87.58
75972;BME280;64651;47.540;19.088;2022-11-12T19:15:00;102106.66;;;9.67;88.07
75972;BME280;64651;47.540;19.088;2022-11-12T19:20:03;102117.25;;;9.64;88.23
75972;BME280;64651;47.540;19.088;2022-11-12T19:25:05;102123.38;;;9.48;88.72
75972;BME280;64651;47.540;19.088;2022-11-12T19:30:09;102129.28;;;9.33;89.28
75972;BME280;64651;47.540;19.088;2022-11-12T19:35:11;102134.38;;;9.48;89.25
75972;BME280;64651;47.540;19.088;2022-11-12T19:40:13;102133.44;;;9.54;89.03
75972;BME280;64651;47.540;19.088;2022-11-12T19:45:15;102130.94;;;9.52;89.06
75972;BME280;64651;47.540;19.088;2022-11-12T19:50:17;102136.91;;;9.49;89.04
75972;BME280;64651;47.540;19.088;2022-11-12T19:55:25;102138.31;;;9.52;88.94
75972;BME280;64651;47.540;19.088;2022-11-12T20:00:29;102137.88;;;9.55;88.95
75972;BME280;64651;47.540;19.088;2022-11-12T20:05:31;102145.44;;;9.41;89.30
75972;BME280;64651;47.540;19.088;2022-11-12T20:10:33;102156.50;;;9.34;89.78
75972;BME280;64651;47.540;19.088;2022-11-12T20:15:38;102168.19;;;9.30;89.93
75972;BME280;64651;47.540;19.088;2022-11-12T20:20:47;102163.16;;;9.45;89.68
75972;BME280;64651;47.540;19.088;2022-11-12T20:25:51;102165.50;;;9.60;89.21
75972;BME280;64651;47.540;19.088;2022-11-12T20:31:04;102152.44;;;9.73;88.56
75972;BME280;64651;47.540;19.088;2022-11-12T20:36:18;102162.53;;;9.80;88.31
75972;BME280;64651;47.540;19.088;2022-11-12T20:41:25;102162.22;;;9.88;88.10
75972;BME280;64651;47.540;19.088;2022-11-12T20:46:27;102156.78;;;9.81;88.08
75972;BME280;64651;47.540;19.088;2022-11-12T20:51:29;102160.78;;;9.67;88.49
75972;BME280;64651;47.540;19.088;2022-11-12T20:56:34;102162.69;;;9.48;89.08
75972;BME280;64651;47.540;19.088;2022-11-12T21:01:36;102165.00;;;9.33;89.62
75972;BME280;64651;47.540;19.088;2022-11-12T21:06:38;102156.50;;;9.16;90.10
75972;BME280;64651;47.540;19.088;2022-11-12T21:11:40;102160.03;;;8.99;90.55
75972;BME280;64651;47.540;19.088;2022-11-12T21:16:45;102152.84;;;8.79;91.16
75972;BME280;64651;47.540;19.088;2022-11-12T21:21:47;102151.81;;;8.49;91.94
75972;BME280;64651;47.540;19.088;2022-11-12T21:26:49;102158.94;;;8.25;92.94
75972;BME280;64651;47.540;19.088;2022-11-12T21:31:51;102159.31;;;7.97;93.64
75972;BME280;64651;47.540;19.088;2022-11-12T21:36:53;102151.44;;;7.69;94.52
75972;BME280;64651;47.540;19.088;2022-11-12T21:41:55;102163.31;;;7.50;95.30
75972;BME280;64651;47.540;19.088;2022-11-12T21:46:57;102158.75;;;7.38;95.83
75972;BME280;64651;47.540;19.088;2022-11-12T21:51:59;102154.12;;;7.25;96.33
75972;BME280;64651;47.540;19.088;2022-11-12T21:57:02;102157.75;;;7.12;96.67
75972;BME280;64651;47.540;19.088;2022-11-12T22:02:04;102162.16;;;7.13;96.91
75972;BME280;64651;47.540;19.088;2022-11-12T22:07:07;102158.81;;;7.05;97.12
75972;BME280;64651;47.540;19.088;2022-11-12T22:12:09;102150.81;;;6.97;97.33
75972;BME280;64651;47.540;19.088;2022-11-12T22:17:11;102150.41;;;6.86;97.43
75972;BME280;64651;47.540;19.088;2022-11-12T22:22:13;102140.31;;;6.87;97.49
75972;BME280;64651;47.540;19.088;2022-11-12T22:27:15;102155.87;;;6.73;97.72
75972;BME280;64651;47.540;19.088;2022-11-12T22:32:17;102144.34;;;6.58;97.90
75972;BME280;64651;47.540;19.088;2022-11-12T22:37:19;102151.69;;;6.51;97.99
75972;BME280;64651;47.540;19.088;2022-11-12T22:42:21;102152.53;;;6.45;98.01
75972;BME280;64651;47.540;19.088;2022-11-12T22:47:23;102156.09;;;6.39;98.08
75972;BME280;64651;47.540;19.088;2022-11-12T22:52:25;102150.62;;;6.26;98.21
75972;BME280;64651;47.540;19.088;2022-11-12T22:57:31;102150.81;;;6.24;98.25
75972;BME280;64651;47.540;19.088;2022-11-12T23:02:33;102146.59;;;6.15;98.35
75972;BME280;64651;47.540;19.088;2022-11-12T23:07:35;102153.94;;;6.08;98.40
75972;BME280;64651;47.540;19.088;2022-11-12T23:12:37;102151.81;;;6.10;98.35
75972;BME280;64651;47.540;19.088;2022-11-12T23:17:39;102150.75;;;6.04;98.47
75972;BME280;64651;47.540;19.088;2022-11-12T23:22:41;102165.47;;;5.97;98.53
75972;BME280;64651;47.540;19.088;2022-11-12T23:27:43;102162.88;;;5.82;98.59
75972;BME280;64651;47.540;19.088;2022-11-12T23:32:45;102155.31;;;5.84;98.63
75972;BME280;64651;47.540;19.088;2022-11-12T23:37:47;102160.78;;;5.84;98.65
75972;BME280;64651;47.540;19.088;2022-11-12T23:42:49;102170.19;;;5.75;98.73
75972;BME280;64651;47.540;19.088;2022-11-12T23:47:52;102162.44;;;5.79;98.75
75972;BME280;64651;47.540;19.088;2022-11-12T23:52:56;102166.63;;;5.75;98.77
75972;BME280;64651;47.540;19.088;2022-11-12T23:57:58;102169.09;;;5.63;98.87
